sensor_id;sensor_type;location;lat;lon;timestamp;pressure;altitude;pressure_sealevel;temperature;humidity
61086;BME280;46967;48.876;2.136;2023-04-19T00:02:19;101793.97;;;39.87;nan
61086;BME280;46967;48.876;2.136;2023-04-19T00:04:44;101795.47;;;39.76;nan
61086;BME280;46967;48.876;2.136;2023-04-19T00:07:10;101788.47;;;39.61;nan
61086;BME280;46967;48.876;2.136;2023-04-19T00:09:35;101796.84;;;39.46;nan
61086;BME280;46967;48.876;2.136;2023-04-19T00:12:01;101800.59;;;39.45;nan
61086;BME280;46967;48.876;2.136;2023-04-19T00:14:27;101799.78;;;39.38;nan
61086;BME280;46967;48.876;2.136;2023-04-19T00:16:52;101790.78;;;39.44;nan
61086;BME280;46967;48.876;2.136;2023-04-19T00:19:18;101805.19;;;39.58;nan
61086;BME280;46967;48.876;2.136;2023-04-19T00:21:43;101799.13;;;39.49;nan
61086;BME280;46967;48.876;2.136;2023-04-19T00:24:08;101801.84;;;39.56;nan
61086;BME280;46967;48.876;2.136;2023-04-19T00:26:34;101810.00;;;39.56;nan
61086;BME280;46967;48.876;2.136;2023-04-19T00:28:59;101805.22;;;39.45;nan
61086;BME280;46967;48.876;2.136;2023-04-19T00:31:25;101804.00;;;39.34;nan
61086;BME280;46967;48.876;2.136;2023-04-19T00:33:50;101805.22;;;39.45;nan
61086;BME280;46967;48.876;2.136;2023-04-19T00:36:15;101805.38;;;39.57;nan
61086;BME280;46967;48.876;2.136;2023-04-19T00:38:41;101798.91;;;39.51;nan
61086;BME280;46967;48.876;2.136;2023-04-19T00:41:06;101798.75;;;39.39;nan
61086;BME280;46967;48.876;2.136;2023-04-19T00:43:31;101795.19;;;39.45;nan
61086;BME280;46967;48.876;2.136;2023-04-19T00:45:57;101795.41;;;39.37;nan
61086;BME280;46967;48.876;2.136;2023-04-19T00:48:22;101802.13;;;39.28;nan
61086;BME280;46967;48.876;2.136;2023-04-19T00:50:49;101793.16;;;39.21;nan
61086;BME280;46967;48.876;2.136;2023-04-19T00:53:15;101799.47;;;39.08;nan
61086;BME280;46967;48.876;2.136;2023-04-19T00:55:41;101792.97;;;39.16;nan
61086;BME280;46967;48.876;2.136;2023-04-19T00:58:07;101799.44;;;39.21;nan
61086;BME280;46967;48.876;2.136;2023-04-19T01:00:33;101794.22;;;39.20;nan
61086;BME280;46967;48.876;2.136;2023-04-19T01:02:59;101800.09;;;39.10;nan
61086;BME280;46967;48.876;2.136;2023-04-19T01:05:24;101795.72;;;39.09;nan
61086;BME280;46967;48.876;2.136;2023-04-19T01:07:49;101798.00;;;39.05;nan
61086;BME280;46967;48.876;2.136;2023-04-19T01:10:15;101793.41;;;38.86;nan
61086;BME280;46967;48.876;2.136;2023-04-19T01:12:40;101785.28;;;38.92;nan
61086;BME280;46967;48.876;2.136;2023-04-19T01:15:06;101787.59;;;38.82;nan
61086;BME280;46967;48.876;2.136;2023-04-19T01:17:32;101781.75;;;38.78;nan
61086;BME280;46967;48.876;2.136;2023-04-19T01:20:02;101782.38;;;38.81;nan
61086;BME280;46967;48.876;2.136;2023-04-19T01:22:28;101784.88;;;38.82;nan
61086;BME280;46967;48.876;2.136;2023-04-19T01:24:56;101769.88;;;38.73;nan
61086;BME280;46967;48.876;2.136;2023-04-19T01:27:22;101778.22;;;38.85;nan
61086;BME280;46967;48.876;2.136;2023-04-19T01:29:48;101775.69;;;38.83;nan
61086;BME280;46967;48.876;2.136;2023-04-19T01:32:14;101780.28;;;38.76;nan
61086;BME280;46967;48.876;2.136;2023-04-19T01:34:39;101775.69;;;38.70;nan
61086;BME280;46967;48.876;2.136;2023-04-19T01:37:04;101780.72;;;38.73;nan
61086;BME280;46967;48.876;2.136;2023-04-19T01:39:30;101776.34;;;38.72;nan
61086;BME280;46967;48.876;2.136;2023-04-19T01:41:55;101778.84;;;38.80;nan
61086;BME280;46967;48.876;2.136;2023-04-19T01:44:20;101773.63;;;38.65;nan
61086;BME280;46967;48.876;2.136;2023-04-19T01:46:46;101778.22;;;38.51;nan
61086;BME280;46967;48.876;2.136;2023-04-19T01:49:12;101771.50;;;38.60;nan
61086;BME280;46967;48.876;2.136;2023-04-19T01:51:38;101773.41;;;38.47;nan
61086;BME280;46967;48.876;2.136;2023-04-19T01:54:03;101771.53;;;38.47;nan
61086;BME280;46967;48.876;2.136;2023-04-19T01:56:29;101772.34;;;38.41;nan
61086;BME280;46967;48.876;2.136;2023-04-19T01:58:55;101770.25;;;38.36;nan
61086;BME280;46967;48.876;2.136;2023-04-19T02:01:20;101767.56;;;38.30;nan
61086;BME280;46967;48.876;2.136;2023-04-19T02:03:45;101764.22;;;38.28;nan
61086;BME280;46967;48.876;2.136;2023-04-19T02:06:12;101765.06;;;38.28;nan
61086;BME280;46967;48.876;2.136;2023-04-19T02:08:38;101761.09;;;38.31;nan
61086;BME280;46967;48.876;2.136;2023-04-19T02:11:11;101764.16;;;38.14;nan
61086;BME280;46967;48.876;2.136;2023-04-19T02:13:38;101772.34;;;38.21;nan
61086;BME280;46967;48.876;2.136;2023-04-19T02:16:04;101764.44;;;38.26;nan
61086;BME280;46967;48.876;2.136;2023-04-19T02:18:30;101766.28;;;38.19;nan
61086;BME280;46967;48.876;2.136;2023-04-19T02:20:57;101764.00;;;38.16;nan
61086;BME280;46967;48.876;2.136;2023-04-19T02:23:23;101760.63;;;38.14;nan
61086;BME280;46967;48.876;2.136;2023-04-19T02:25:48;101765.84;;;38.09;nan
61086;BME280;46967;48.876;2.136;2023-04-19T02:28:14;101770.66;;;38.13;nan
61086;BME280;46967;48.876;2.136;2023-04-19T02:30:39;101770.41;;;38.08;nan
61086;BME280;46967;48.876;2.136;2023-04-19T02:33:04;101767.69;;;38.08;nan
61086;BME280;46967;48.876;2.136;2023-04-19T02:35:30;101766.88;;;38.08;nan
61086;BME280;46967;48.876;2.136;2023-04-19T02:37:55;101782.25;;;37.94;nan
61086;BME280;46967;48.876;2.136;2023-04-19T02:40:21;101765.81;;;37.95;nan
61086;BME280;46967;48.876;2.136;2023-04-19T02:42:47;101763.94;;;37.96;nan
61086;BME280;46967;48.876;2.136;2023-04-19T02:45:13;101771.88;;;37.97;nan
61086;BME280;46967;48.876;2.136;2023-04-19T02:47:38;101768.28;;;37.83;nan
61086;BME280;46967;48.876;2.136;2023-04-19T02:50:04;101765.38;;;37.85;nan
61086;BME280;46967;48.876;2.136;2023-04-19T02:52:30;101758.50;;;37.89;nan
61086;BME280;46967;48.876;2.136;2023-04-19T02:54:55;101765.59;;;37.90;nan
61086;BME280;46967;48.876;2.136;2023-04-19T02:57:21;101762.88;;;37.83;nan
61086;BME280;46967;48.876;2.136;2023-04-19T02:59:46;101761.09;;;37.62;nan
61086;BME280;46967;48.876;2.136;2023-04-19T03:02:11;101765.03;;;37.53;nan
61086;BME280;46967;48.876;2.136;2023-04-19T03:04:37;101757.53;;;37.48;nan
61086;BME280;46967;48.876;2.136;2023-04-19T03:07:02;101774.34;;;37.37;nan
61086;BME280;46967;48.876;2.136;2023-04-19T03:09:27;101772.06;;;37.41;nan
61086;BME280;46967;48.876;2.136;2023-04-19T03:11:52;101773.25;;;37.31;nan
61086;BME280;46967;48.876;2.136;2023-04-19T03:14:18;101769.94;;;37.29;nan
61086;BME280;46967;48.876;2.136;2023-04-19T03:16:43;101760.03;;;37.15;nan
61086;BME280;46967;48.876;2.136;2023-04-19T03:19:09;101763.44;;;37.24;nan
61086;BME280;46967;48.876;2.136;2023-04-19T03:21:34;101766.97;;;37.24;nan
61086;BME280;46967;48.876;2.136;2023-04-19T03:24:00;101765.69;;;37.20;nan
61086;BME280;46967;48.876;2.136;2023-04-19T03:26:25;101767.97;;;37.16;nan
61086;BME280;46967;48.876;2.136;2023-04-19T03:28:51;101766.25;;;37.09;nan
61086;BME280;46967;48.876;2.136;2023-04-19T03:31:16;101766.84;;;37.04;nan
61086;BME280;46967;48.876;2.136;2023-04-19T03:33:42;101757.38;;;36.87;nan
61086;BME280;46967;48.876;2.136;2023-04-19T03:36:07;101763.41;;;36.89;nan
61086;BME280;46967;48.876;2.136;2023-04-19T03:38:33;101760.59;;;37.04;nan
61086;BME280;46967;48.876;2.136;2023-04-19T03:40:58;101757.28;;;37.08;nan
61086;BME280;46967;48.876;2.136;2023-04-19T03:43:23;101757.25;;;37.02;nan
61086;BME280;46967;48.876;2.136;2023-04-19T03:45:49;101762.03;;;36.99;nan
61086;BME280;46967;48.876;2.136;2023-04-19T03:48:14;101758.03;;;36.95;nan
61086;BME280;46967;48.876;2.136;2023-04-19T03:50:40;101762.00;;;36.93;nan
61086;BME280;46967;48.876;2.136;2023-04-19T03:53:05;101758.19;;;36.87;nan
61086;BME280;46967;48.876;2.136;2023-04-19T03:55:30;101750.03;;;36.80;nan
61086;BME280;46967;48.876;2.136;2023-04-19T03:57:56;101754.81;;;36.78;nan
61086;BME280;46967;48.876;2.136;2023-04-19T04:00:21;101752.56;;;36.82;nan
61086;BME280;46967;48.876;2.136;2023-04-19T04:02:47;101758.34;;;36.79;nan
61086;BME280;46967;48.876;2.136;2023-04-19T04:05:12;101752.88;;;36.72;nan
61086;BME280;46967;48.876;2.136;2023-04-19T04:07:37;101755.56;;;36.72;nan
61086;BME280;46967;48.876;2.136;2023-04-19T04:10:03;101750.00;;;36.74;nan
61086;BME280;46967;48.876;2.136;2023-04-19T04:12:29;101746.06;;;36.76;nan
61086;BME280;46967;48.876;2.136;2023-04-19T04:14:54;101749.66;;;36.84;nan
61086;BME280;46967;48.876;2.136;2023-04-19T04:17:19;101760.44;;;36.77;nan
61086;BME280;46967;48.876;2.136;2023-04-19T04:19:45;101747.59;;;36.86;nan
61086;BME280;46967;48.876;2.136;2023-04-19T04:22:10;101751.34;;;36.85;nan
61086;BME280;46967;48.876;2.136;2023-04-19T04:24:39;101749.63;;;36.77;nan
61086;BME280;46967;48.876;2.136;2023-04-19T04:27:09;101752.03;;;37.00;nan
61086;BME280;46967;48.876;2.136;2023-04-19T04:29:36;101757.53;;;37.13;nan
61086;BME280;46967;48.876;2.136;2023-04-19T04:32:06;101756.69;;;37.13;nan
61086;BME280;46967;48.876;2.136;2023-04-19T04:34:35;101756.09;;;37.17;nan
61086;BME280;46967;48.876;2.136;2023-04-19T04:37:01;101756.69;;;37.13;nan
61086;BME280;46967;48.876;2.136;2023-04-19T04:39:28;101756.88;;;37.11;nan
61086;BME280;46967;48.876;2.136;2023-04-19T04:41:53;101757.03;;;37.03;nan
61086;BME280;46967;48.876;2.136;2023-04-19T04:44:18;101767.06;;;37.09;nan
61086;BME280;46967;48.876;2.136;2023-04-19T04:46:47;101763.78;;;37.14;nan
61086;BME280;46967;48.876;2.136;2023-04-19T04:49:12;101765.84;;;37.12;nan
61086;BME280;46967;48.876;2.136;2023-04-19T04:51:37;101761.06;;;37.14;nan
61086;BME280;46967;48.876;2.136;2023-04-19T04:54:03;101762.28;;;37.11;nan
61086;BME280;46967;48.876;2.136;2023-04-19T04:56:29;101767.91;;;37.10;nan
61086;BME280;46967;48.876;2.136;2023-04-19T04:58:55;101770.09;;;36.93;nan
61086;BME280;46967;48.876;2.136;2023-04-19T05:01:21;101766.59;;;36.99;nan
61086;BME280;46967;48.876;2.136;2023-04-19T05:03:48;101767.69;;;37.11;nan
61086;BME280;46967;48.876;2.136;2023-04-19T05:06:13;101773.09;;;37.11;nan
61086;BME280;46967;48.876;2.136;2023-04-19T05:08:38;101770.38;;;37.05;nan
61086;BME280;46967;48.876;2.136;2023-04-19T05:11:04;101771.84;;;37.07;nan
61086;BME280;46967;48.876;2.136;2023-04-19T05:13:29;101780.00;;;37.14;nan
61086;BME280;46967;48.876;2.136;2023-04-19T05:15:55;101778.22;;;37.21;nan
61086;BME280;46967;48.876;2.136;2023-04-19T05:18:20;101782.94;;;37.19;nan
61086;BME280;46967;48.876;2.136;2023-04-19T05:20:45;101780.59;;;37.09;nan
61086;BME280;46967;48.876;2.136;2023-04-19T05:23:11;101781.78;;;37.00;nan
61086;BME280;46967;48.876;2.136;2023-04-19T05:25:36;101774.06;;;36.97;nan
61086;BME280;46967;48.876;2.136;2023-04-19T05:28:01;101777.66;;;37.04;nan
61086;BME280;46967;48.876;2.136;2023-04-19T05:30:27;101778.69;;;37.03;nan
61086;BME280;46967;48.876;2.136;2023-04-19T05:32:53;101784.72;;;37.05;nan
61086;BME280;46967;48.876;2.136;2023-04-19T05:35:18;101786.59;;;37.05;nan
61086;BME280;46967;48.876;2.136;2023-04-19T05:37:44;101787.91;;;37.15;nan
61086;BME280;46967;48.876;2.136;2023-04-19T05:40:10;101789.03;;;37.21;nan
61086;BME280;46967;48.876;2.136;2023-04-19T05:42:36;101790.50;;;37.30;nan
61086;BME280;46967;48.876;2.136;2023-04-19T05:45:02;101782.72;;;37.49;nan
61086;BME280;46967;48.876;2.136;2023-04-19T05:47:27;101787.50;;;37.53;nan
61086;BME280;46967;48.876;2.136;2023-04-19T05:49:53;101791.69;;;37.56;nan
61086;BME280;46967;48.876;2.136;2023-04-19T05:52:18;101792.34;;;37.65;nan
61086;BME280;46967;48.876;2.136;2023-04-19T05:54:43;101791.72;;;37.63;nan
61086;BME280;46967;48.876;2.136;2023-04-19T05:57:09;101799.00;;;37.62;nan
61086;BME280;46967;48.876;2.136;2023-04-19T05:59:34;101805.03;;;37.58;nan
61086;BME280;46967;48.876;2.136;2023-04-19T06:01:59;101796.38;;;37.76;nan
61086;BME280;46967;48.876;2.136;2023-04-19T06:04:25;101803.09;;;37.86;nan
61086;BME280;46967;48.876;2.136;2023-04-19T06:06:51;101798.91;;;37.91;nan
61086;BME280;46967;48.876;2.136;2023-04-19T06:09:16;101793.88;;;37.74;nan
61086;BME280;46967;48.876;2.136;2023-04-19T06:11:45;101801.78;;;37.69;nan
61086;BME280;46967;48.876;2.136;2023-04-19T06:14:11;101804.78;;;37.94;nan
61086;BME280;46967;48.876;2.136;2023-04-19T06:16:39;101810.41;;;38.06;nan
61086;BME280;46967;48.876;2.136;2023-04-19T06:19:05;101809.78;;;37.97;nan
61086;BME280;46967;48.876;2.136;2023-04-19T06:21:32;101812.91;;;38.08;nan
61086;BME280;46967;48.876;2.136;2023-04-19T06:23:57;101814.19;;;38.12;nan
61086;BME280;46967;48.876;2.136;2023-04-19T06:26:23;101812.63;;;37.82;nan
61086;BME280;46967;48.876;2.136;2023-04-19T06:28:48;101810.34;;;37.86;nan
61086;BME280;46967;48.876;2.136;2023-04-19T06:31:13;101830.69;;;38.17;nan
61086;BME280;46967;48.876;2.136;2023-04-19T06:33:39;101810.84;;;38.10;nan
61086;BME280;46967;48.876;2.136;2023-04-19T06:36:04;101811.53;;;38.32;nan
61086;BME280;46967;48.876;2.136;2023-04-19T06:38:30;101817.53;;;38.14;nan
61086;BME280;46967;48.876;2.136;2023-04-19T06:40:55;101819.66;;;38.38;nan
61086;BME280;46967;48.876;2.136;2023-04-19T06:43:20;101817.22;;;37.82;nan
61086;BME280;46967;48.876;2.136;2023-04-19T06:45:46;101818.81;;;38.18;nan
61086;BME280;46967;48.876;2.136;2023-04-19T06:48:11;101822.47;;;37.90;nan
61086;BME280;46967;48.876;2.136;2023-04-19T06:50:37;101820.72;;;38.51;nan
61086;BME280;46967;48.876;2.136;2023-04-19T06:53:03;101828.84;;;38.44;nan
61086;BME280;46967;48.876;2.136;2023-04-19T06:55:28;101828.06;;;38.70;nan
61086;BME280;46967;48.876;2.136;2023-04-19T06:57:54;101816.16;;;38.58;nan
61086;BME280;46967;48.876;2.136;2023-04-19T07:00:19;101819.66;;;38.25;nan
61086;BME280;46967;48.876;2.136;2023-04-19T07:02:51;101831.75;;;38.56;nan
61086;BME280;46967;48.876;2.136;2023-04-19T07:05:17;101819.72;;;38.72;nan
61086;BME280;46967;48.876;2.136;2023-04-19T07:07:42;101818.00;;;38.57;nan
61086;BME280;46967;48.876;2.136;2023-04-19T07:10:08;101820.94;;;38.83;nan
61086;BME280;46967;48.876;2.136;2023-04-19T07:12:33;101814.69;;;38.55;nan
61086;BME280;46967;48.876;2.136;2023-04-19T07:14:58;101813.44;;;38.91;nan
61086;BME280;46967;48.876;2.136;2023-04-19T07:17:24;101821.97;;;39.02;nan
61086;BME280;46967;48.876;2.136;2023-04-19T07:19:50;101824.31;;;39.11;nan
61086;BME280;46967;48.876;2.136;2023-04-19T07:22:17;101820.53;;;39.12;nan
61086;BME280;46967;48.876;2.136;2023-04-19T07:24:49;101825.50;;;39.36;nan
61086;BME280;46967;48.876;2.136;2023-04-19T07:27:16;101827.72;;;39.59;nan
61086;BME280;46967;48.876;2.136;2023-04-19T07:29:42;101828.78;;;39.58;nan
61086;BME280;46967;48.876;2.136;2023-04-19T07:32:08;101831.91;;;39.61;nan
61086;BME280;46967;48.876;2.136;2023-04-19T07:34:33;101838.06;;;38.63;nan
61086;BME280;46967;48.876;2.136;2023-04-19T07:36:58;101838.41;;;39.40;nan
61086;BME280;46967;48.876;2.136;2023-04-19T07:39:24;101835.97;;;39.19;nan
61086;BME280;46967;48.876;2.136;2023-04-19T07:41:49;101838.41;;;40.06;nan
61086;BME280;46967;48.876;2.136;2023-04-19T07:44:14;101832.47;;;40.15;nan
61086;BME280;46967;48.876;2.136;2023-04-19T07:46:42;101841.34;;;39.91;nan
61086;BME280;46967;48.876;2.136;2023-04-19T07:49:07;101830.28;;;39.99;nan
61086;BME280;46967;48.876;2.136;2023-04-19T07:51:32;101830.28;;;39.99;nan
61086;BME280;46967;48.876;2.136;2023-04-19T07:53:58;101837.88;;;40.22;nan
61086;BME280;46967;48.876;2.136;2023-04-19T07:56:23;101835.38;;;40.20;nan
61086;BME280;46967;48.876;2.136;2023-04-19T07:58:50;101837.59;;;40.30;nan
61086;BME280;46967;48.876;2.136;2023-04-19T08:01:15;101836.06;;;40.09;nan
61086;BME280;46967;48.876;2.136;2023-04-19T08:03:41;101827.63;;;39.79;nan
61086;BME280;46967;48.876;2.136;2023-04-19T08:06:06;101830.28;;;39.99;nan
61086;BME280;46967;48.876;2.136;2023-04-19T08:08:35;101824.72;;;40.51;nan
61086;BME280;46967;48.876;2.136;2023-04-19T08:11:01;101827.56;;;40.31;nan
61086;BME280;46967;48.876;2.136;2023-04-19T08:13:28;101831.44;;;40.16;nan
61086;BME280;46967;48.876;2.136;2023-04-19T08:15:53;101824.38;;;40.09;nan
61086;BME280;46967;48.876;2.136;2023-04-19T08:18:18;101831.28;;;40.93;nan
61086;BME280;46967;48.876;2.136;2023-04-19T08:20:45;101826.06;;;40.35;nan
61086;BME280;46967;48.876;2.136;2023-04-19T08:23:11;101825.50;;;40.26;nan
61086;BME280;46967;48.876;2.136;2023-04-19T08:25:37;101818.00;;;40.79;nan
61086;BME280;46967;48.876;2.136;2023-04-19T08:28:02;101825.38;;;40.97;nan
61086;BME280;46967;48.876;2.136;2023-04-19T08:30:28;101815.84;;;40.87;nan
61086;BME280;46967;48.876;2.136;2023-04-19T08:32:53;101819.28;;;41.38;nan
61086;BME280;46967;48.876;2.136;2023-04-19T08:35:19;101815.28;;;41.59;nan
61086;BME280;46967;48.876;2.136;2023-04-19T08:37:45;101818.78;;;41.48;nan
61086;BME280;46967;48.876;2.136;2023-04-19T08:40:12;101824.25;;;40.79;nan
61086;BME280;46967;48.876;2.136;2023-04-19T08:42:38;101818.91;;;41.16;nan
61086;BME280;46967;48.876;2.136;2023-04-19T08:45:04;101826.03;;;41.54;nan
61086;BME280;46967;48.876;2.136;2023-04-19T08:47:31;101820.41;;;42.16;nan
61086;BME280;46967;48.876;2.136;2023-04-19T08:50:00;101817.38;;;42.06;nan
61086;BME280;46967;48.876;2.136;2023-04-19T08:52:26;101822.22;;;41.92;nan
61086;BME280;46967;48.876;2.136;2023-04-19T08:54:53;101819.75;;;42.45;nan
61086;BME280;46967;48.876;2.136;2023-04-19T08:57:19;101810.66;;;41.78;nan
61086;BME280;46967;48.876;2.136;2023-04-19T08:59:45;101817.22;;;42.20;nan
61086;BME280;46967;48.876;2.136;2023-04-19T09:02:13;101814.41;;;42.50;nan
61086;BME280;46967;48.876;2.136;2023-04-19T09:04:39;101809.94;;;42.67;nan
61086;BME280;46967;48.876;2.136;2023-04-19T09:07:05;101820.00;;;42.90;nan
61086;BME280;46967;48.876;2.136;2023-04-19T09:09:32;101813.28;;;43.05;nan
61086;BME280;46967;48.876;2.136;2023-04-19T09:11:57;101818.09;;;43.27;nan
61086;BME280;46967;48.876;2.136;2023-04-19T09:14:24;101807.41;;;43.25;nan
61086;BME280;46967;48.876;2.136;2023-04-19T09:16:50;101812.03;;;43.24;nan
61086;BME280;46967;48.876;2.136;2023-04-19T09:19:16;101814.97;;;43.35;nan
61086;BME280;46967;48.876;2.136;2023-04-19T09:21:42;101817.59;;;43.30;nan
61086;BME280;46967;48.876;2.136;2023-04-19T09:24:08;101815.84;;;42.10;nan
61086;BME280;46967;48.876;2.136;2023-04-19T09:26:33;101812.78;;;43.08;nan
61086;BME280;46967;48.876;2.136;2023-04-19T09:29:00;101812.63;;;43.38;nan
61086;BME280;46967;48.876;2.136;2023-04-19T09:31:29;101808.19;;;43.49;nan
61086;BME280;46967;48.876;2.136;2023-04-19T09:33:55;101793.28;;;43.97;nan
61086;BME280;46967;48.876;2.136;2023-04-19T09:36:27;101802.88;;;43.42;nan
61086;BME280;46967;48.876;2.136;2023-04-19T09:38:53;101797.34;;;43.25;nan
61086;BME280;46967;48.876;2.136;2023-04-19T09:41:18;101793.75;;;43.94;nan
61086;BME280;46967;48.876;2.136;2023-04-19T09:43:45;101803.59;;;43.78;nan
61086;BME280;46967;48.876;2.136;2023-04-19T09:46:33;101799.91;;;43.32;nan
61086;BME280;46967;48.876;2.136;2023-04-19T09:51:49;101790.16;;;44.96;nan
61086;BME280;46967;48.876;2.136;2023-04-19T09:54:17;101789.22;;;44.17;nan
61086;BME280;46967;48.876;2.136;2023-04-19T09:56:43;101781.97;;;44.23;nan
61086;BME280;46967;48.876;2.136;2023-04-19T09:59:09;101780.25;;;43.88;nan
61086;BME280;46967;48.876;2.136;2023-04-19T10:01:47;101774.72;;;44.00;nan
61086;BME280;46967;48.876;2.136;2023-04-19T10:04:14;101774.41;;;45.03;nan
61086;BME280;46967;48.876;2.136;2023-04-19T10:06:50;101774.22;;;45.10;nan
61086;BME280;46967;48.876;2.136;2023-04-19T10:09:17;101775.34;;;45.36;nan
61086;BME280;46967;48.876;2.136;2023-04-19T10:11:47;101769.91;;;44.58;nan
61086;BME280;46967;48.876;2.136;2023-04-19T10:14:14;101767.31;;;44.85;nan
61086;BME280;46967;48.876;2.136;2023-04-19T10:16:40;101761.66;;;45.14;nan
61086;BME280;46967;48.876;2.136;2023-04-19T10:19:08;101753.44;;;45.14;nan
61086;BME280;46967;48.876;2.136;2023-04-19T10:21:34;101755.34;;;45.57;nan
61086;BME280;46967;48.876;2.136;2023-04-19T10:24:01;101762.25;;;45.65;nan
61086;BME280;46967;48.876;2.136;2023-04-19T10:26:27;101763.53;;;44.69;nan
61086;BME280;46967;48.876;2.136;2023-04-19T10:28:55;101755.41;;;44.96;nan
61086;BME280;46967;48.876;2.136;2023-04-19T10:31:25;101752.66;;;44.74;nan
61086;BME280;46967;48.876;2.136;2023-04-19T10:33:50;101758.22;;;45.46;nan
61086;BME280;46967;48.876;2.136;2023-04-19T10:36:16;101754.88;;;45.38;nan
61086;BME280;46967;48.876;2.136;2023-04-19T10:38:46;101744.22;;;45.42;nan
61086;BME280;46967;48.876;2.136;2023-04-19T10:41:13;101749.28;;;44.67;nan
61086;BME280;46967;48.876;2.136;2023-04-19T10:43:42;101749.78;;;43.96;nan
61086;BME280;46967;48.876;2.136;2023-04-19T10:48:35;101737.13;;;44.41;nan
61086;BME280;46967;48.876;2.136;2023-04-19T10:51:16;101750.06;;;44.11;nan
61086;BME280;46967;48.876;2.136;2023-04-19T10:56:13;101735.91;;;45.37;nan
61086;BME280;46967;48.876;2.136;2023-04-19T11:01:45;101741.78;;;46.05;nan
61086;BME280;46967;48.876;2.136;2023-04-19T11:04:11;101726.25;;;44.85;nan
61086;BME280;46967;48.876;2.136;2023-04-19T11:09:31;101729.59;;;45.09;nan
61086;BME280;46967;48.876;2.136;2023-04-19T11:12:17;101725.97;;;45.80;nan
61086;BME280;46967;48.876;2.136;2023-04-19T11:17:15;101714.09;;;45.20;nan
61086;BME280;46967;48.876;2.136;2023-04-19T11:19:44;101708.56;;;46.34;nan
61086;BME280;46967;48.876;2.136;2023-04-19T11:22:16;101702.84;;;45.71;nan
61086;BME280;46967;48.876;2.136;2023-04-19T11:24:44;101701.47;;;46.01;nan
61086;BME280;46967;48.876;2.136;2023-04-19T11:27:11;101703.34;;;46.91;nan
61086;BME280;46967;48.876;2.136;2023-04-19T11:29:37;101701.38;;;46.28;nan
61086;BME280;46967;48.876;2.136;2023-04-19T11:32:03;101688.50;;;45.36;nan
61086;BME280;46967;48.876;2.136;2023-04-19T11:34:28;101693.28;;;45.73;nan
61086;BME280;46967;48.876;2.136;2023-04-19T11:36:54;101691.00;;;45.11;nan
61086;BME280;46967;48.876;2.136;2023-04-19T11:39:19;101686.41;;;45.71;nan
61086;BME280;46967;48.876;2.136;2023-04-19T11:41:46;101690.44;;;45.36;nan
61086;BME280;46967;48.876;2.136;2023-04-19T11:44:18;101683.84;;;45.91;nan
61086;BME280;46967;48.876;2.136;2023-04-19T11:46:59;101679.13;;;46.19;nan
61086;BME280;46967;48.876;2.136;2023-04-19T11:49:30;101679.41;;;46.23;nan
61086;BME280;46967;48.876;2.136;2023-04-19T11:52:00;101678.38;;;45.97;nan
61086;BME280;46967;48.876;2.136;2023-04-19T11:54:26;101678.31;;;45.81;nan
61086;BME280;46967;48.876;2.136;2023-04-19T11:57:07;101676.69;;;46.23;nan
61086;BME280;46967;48.876;2.136;2023-04-19T11:59:34;101673.47;;;45.66;nan
61086;BME280;46967;48.876;2.136;2023-04-19T12:02:10;101661.34;;;45.89;nan
61086;BME280;46967;48.876;2.136;2023-04-19T12:04:37;101671.56;;;46.42;nan
61086;BME280;46967;48.876;2.136;2023-04-19T12:07:04;101662.78;;;46.40;nan
61086;BME280;46967;48.876;2.136;2023-04-19T12:09:34;101667.59;;;45.25;nan
61086;BME280;46967;48.876;2.136;2023-04-19T12:12:00;101662.19;;;46.33;nan
61086;BME280;46967;48.876;2.136;2023-04-19T12:14:26;101659.50;;;47.22;nan
61086;BME280;46967;48.876;2.136;2023-04-19T12:17:11;101656.00;;;47.83;nan
61086;BME280;46967;48.876;2.136;2023-04-19T12:19:42;101652.41;;;47.41;nan
61086;BME280;46967;48.876;2.136;2023-04-19T12:22:09;101658.13;;;47.09;nan
61086;BME280;46967;48.876;2.136;2023-04-19T12:24:36;101652.13;;;47.58;nan
61086;BME280;46967;48.876;2.136;2023-04-19T12:27:02;101651.81;;;47.18;nan
61086;BME280;46967;48.876;2.136;2023-04-19T12:29:28;101651.88;;;47.34;nan
61086;BME280;46967;48.876;2.136;2023-04-19T12:31:53;101644.69;;;46.44;nan
61086;BME280;46967;48.876;2.136;2023-04-19T12:34:19;101650.81;;;46.56;nan
61086;BME280;46967;48.876;2.136;2023-04-19T12:36:44;101652.75;;;46.61;nan
61086;BME280;46967;48.876;2.136;2023-04-19T12:39:10;101648.94;;;46.77;nan
61086;BME280;46967;48.876;2.136;2023-04-19T12:41:36;101647.69;;;47.98;nan
61086;BME280;46967;48.876;2.136;2023-04-19T12:44:01;101649.09;;;45.97;nan
61086;BME280;46967;48.876;2.136;2023-04-19T12:46:27;101648.28;;;47.39;nan
61086;BME280;46967;48.876;2.136;2023-04-19T12:48:52;101640.28;;;47.11;nan
61086;BME280;46967;48.876;2.136;2023-04-19T12:51:17;101644.13;;;47.10;nan
61086;BME280;46967;48.876;2.136;2023-04-19T12:53:47;101640.59;;;47.41;nan
61086;BME280;46967;48.876;2.136;2023-04-19T12:56:13;101632.59;;;47.85;nan
61086;BME280;46967;48.876;2.136;2023-04-19T12:58:40;101644.31;;;46.25;nan
61086;BME280;46967;48.876;2.136;2023-04-19T13:01:05;101626.50;;;46.22;nan
61086;BME280;46967;48.876;2.136;2023-04-19T13:03:30;101623.94;;;46.10;nan
61086;BME280;46967;48.876;2.136;2023-04-19T13:05:57;101619.41;;;47.82;nan
61086;BME280;46967;48.876;2.136;2023-04-19T13:08:22;101618.59;;;47.10;nan
61086;BME280;46967;48.876;2.136;2023-04-19T13:10:47;101619.72;;;47.76;nan
61086;BME280;46967;48.876;2.136;2023-04-19T13:13:12;101613.34;;;48.06;nan
61086;BME280;46967;48.876;2.136;2023-04-19T13:15:38;101616.31;;;46.86;nan
61086;BME280;46967;48.876;2.136;2023-04-19T13:18:06;101615.81;;;46.94;nan
61086;BME280;46967;48.876;2.136;2023-04-19T13:20:31;101622.47;;;47.50;nan
61086;BME280;46967;48.876;2.136;2023-04-19T13:22:56;101627.38;;;48.04;nan